Main page
METAR-TAF:

METAR-TAF

Airports :

Charlevoix Municipal Airport

Charlevoix, Michigan, United States

latitude: 45-18-17N, longitude: 085-16-29W, elevation: 669 ft

Current weather observation

The report was made 26 minutes ago, at 02:35 UTC
Wind 7 mph from the Southwest
Temperature 61°F
Humidity 63%
Pressure 29.73 in. Hg
Visibility: 10 miles
Clear sky

METAR: KCVX 230235Z AUTO 22006KT 10SM CLR 16/09 A2973 RMK AO2 T01590086

Time: 23:01 (03:01 UTC)


TAF: missing

Weather observations and forecasts of more than 4000 airports (METAR and TAF reports).

The available stations are represented by yellow and red dots on the map.

Hover mouse over dot to see the name of the station.

Then click to see weather observations and forecasts.

To change the map : click on the green buttons with a black cross to zoom in, on the green button with a dash to zoom out, or on the green arrows for adjacent maps.


METAR-TAF: